Terminal Aerodrome Forecast
Issued by NWS

Home | Current Version | Previous Version | Text Only | Print | Product List | Glossary On
Versions: 1 2 3 4 5 6 7 8 9 10 11 12 13 14 15 16 17 18 19 20 21 22 23 24 25 26 27 28 29 30 31
000
FTAK31 PANC 010524
TAFACD
TAF
PACD 010524Z 0106/0206 03018G26KT P6SM BKN060 BKN200
     FM010900 06018G26KT P6SM -SHRA BKN035 OVC100
     FM011500 05012KT P6SM VCSH SCT035 BKN100=

USA.gov is the U.S. government's official web portal to all federal, state and local government web resources and services.